createdAt,value
2023-03-05T00:01:28.963Z,99575.72
2023-03-05T00:03:58.623Z,99586.44
2023-03-05T00:06:31.625Z,99567.53
2023-03-05T00:08:59.829Z,99597.44
2023-03-05T00:11:30.334Z,99560.50
2023-03-05T00:13:58.994Z,99587.38
2023-03-05T00:16:27.902Z,99564.66
2023-03-05T00:18:56.639Z,99571.81
2023-03-05T00:21:36.655Z,99584.00
2023-03-05T00:24:07.634Z,99577.81
2023-03-05T00:26:37.054Z,99584.19
2023-03-05T00:29:06.510Z,99586.41
2023-03-05T00:31:36.516Z,99575.81
2023-03-05T00:34:09.540Z,99575.81
2023-03-05T00:36:44.214Z,99558.00
2023-03-05T00:39:12.316Z,99565.31
2023-03-05T00:41:40.405Z,99560.69
2023-03-05T00:44:08.434Z,99551.06
2023-03-05T00:46:36.566Z,99577.44
2023-03-05T00:49:04.795Z,99557.75
2023-03-05T00:51:32.284Z,99551.59
2023-03-05T00:54:00.120Z,99544.91
2023-03-05T00:56:27.878Z,99545.88
2023-03-05T00:58:56.231Z,99531.53
2023-03-05T01:01:24.469Z,99547.84
2023-03-05T01:03:52.513Z,99558.38
2023-03-05T01:06:20.017Z,99558.56
2023-03-05T01:08:47.825Z,99555.88
2023-03-05T01:11:15.257Z,99567.19
2023-03-05T01:13:42.948Z,99554.00
2023-03-05T01:16:10.953Z,99564.16
2023-03-05T01:18:40.127Z,99548.84
2023-03-05T01:21:09.054Z,99565.47
2023-03-05T01:23:37.697Z,99548.16
2023-03-05T01:26:05.875Z,99556.88
2023-03-05T01:28:33.674Z,99554.94
2023-03-05T01:31:01.108Z,99553.41
2023-03-05T01:33:28.845Z,99563.34
2023-03-05T01:35:56.391Z,99572.13
2023-03-05T01:38:24.248Z,99577.31
2023-03-05T01:40:51.733Z,99546.88
2023-03-05T01:43:31.397Z,99564.97
2023-03-05T01:46:38.580Z,99567.94
2023-03-05T01:49:18.004Z,99547.41
2023-03-05T01:51:56.639Z,99568.25
2023-03-05T01:54:29.693Z,99552.25
2023-03-05T01:56:59.144Z,99553.56
2023-03-05T01:59:28.556Z,99554.91
2023-03-05T02:01:58.261Z,99535.16
2023-03-05T02:04:32.694Z,99556.66
2023-03-05T02:07:00.368Z,99536.78
2023-03-05T02:09:28.963Z,99540.03
2023-03-05T02:11:57.529Z,99540.34
2023-03-05T02:14:26.126Z,99538.19
2023-03-05T02:16:53.592Z,99529.47
2023-03-05T02:19:21.388Z,99535.50
2023-03-05T02:21:50.740Z,99536.97
2023-03-05T02:24:34.466Z,99534.13
2023-03-05T02:27:03.127Z,99529.31
2023-03-05T02:29:33.728Z,99526.66
2023-03-05T02:32:01.963Z,99527.66
2023-03-05T02:34:30.172Z,99546.72
2023-03-05T02:36:58.201Z,99552.06
2023-03-05T02:39:27.614Z,99526.00
2023-03-05T02:41:55.077Z,99555.41
2023-03-05T02:44:23.471Z,99545.22
2023-03-05T02:46:50.932Z,99547.56
2023-03-05T02:49:19.240Z,99543.56
2023-03-05T02:51:46.655Z,99562.59
2023-03-05T02:54:15.971Z,99530.84
2023-03-05T02:56:50.789Z,99551.44
2023-03-05T02:59:27.056Z,99538.00
2023-03-05T03:01:59.465Z,99553.88
2023-03-05T03:04:30.401Z,99553.38
2023-03-05T03:06:57.796Z,99543.50
2023-03-05T03:09:26.902Z,99558.56
2023-03-05T03:11:54.468Z,99548.34
2023-03-05T03:14:22.558Z,99557.22
2023-03-05T03:16:50.596Z,99559.91
2023-03-05T03:19:18.285Z,99550.44
2023-03-05T03:21:45.676Z,99555.31
2023-03-05T03:24:13.412Z,99567.56
2023-03-05T03:26:40.925Z,99566.69
2023-03-05T03:29:08.735Z,99536.63
2023-03-05T03:31:36.208Z,99565.06
2023-03-05T03:34:03.882Z,99588.16
2023-03-05T03:36:32.288Z,99566.66
2023-03-05T03:39:00.022Z,99582.72
2023-03-05T03:41:27.313Z,99585.25
2023-03-05T03:43:55.896Z,99582.13
2023-03-05T03:46:23.418Z,99586.16
2023-03-05T03:48:51.892Z,99595.34
2023-03-05T03:51:19.280Z,99589.47
2023-03-05T03:53:47.197Z,99588.50
2023-03-05T03:56:15.589Z,99563.78
2023-03-05T03:58:43.308Z,99579.25
2023-03-05T04:01:10.933Z,99584.94
2023-03-05T04:03:38.954Z,99573.75
2023-03-05T04:06:07.262Z,99574.88
2023-03-05T04:08:35.022Z,99570.84
2023-03-05T04:11:03.063Z,99596.72
2023-03-05T04:13:30.929Z,99596.88
2023-03-05T04:15:58.473Z,99586.13
2023-03-05T04:18:26.258Z,99578.19
2023-03-05T04:20:53.857Z,99589.53
2023-03-05T04:23:22.072Z,99593.16
2023-03-05T04:25:49.395Z,99575.97
2023-03-05T04:28:18.277Z,99574.03
2023-03-05T04:30:45.584Z,99542.34
2023-03-05T04:33:13.370Z,99588.09
2023-03-05T04:35:40.744Z,99578.16
2023-03-05T04:38:09.086Z,99579.47
2023-03-05T04:40:36.746Z,99575.28
2023-03-05T04:43:05.341Z,99574.69
2023-03-05T04:45:33.670Z,99580.09
2023-03-05T04:48:01.471Z,99579.84
2023-03-05T04:50:28.965Z,99586.91
2023-03-05T04:52:56.652Z,99572.31
2023-03-05T04:55:24.192Z,99563.41
2023-03-05T04:57:51.916Z,99581.16
2023-03-05T05:00:20.161Z,99585.03
2023-03-05T05:02:49.927Z,99560.00
2023-03-05T05:05:20.501Z,99570.88
2023-03-05T05:07:48.162Z,99588.47
2023-03-05T05:10:16.538Z,99584.97
2023-03-05T05:12:44.217Z,99583.72
2023-03-05T05:15:13.623Z,99597.22
2023-03-05T05:17:41.333Z,99581.94
2023-03-05T05:20:11.672Z,99605.28
2023-03-05T05:22:39.862Z,99573.41
2023-03-05T05:25:08.072Z,99613.97
2023-03-05T05:27:36.035Z,99607.81
2023-03-05T05:30:04.405Z,99610.63
2023-03-05T05:32:32.121Z,99610.06
2023-03-05T05:35:00.056Z,99615.78
2023-03-05T05:37:27.959Z,99619.66
2023-03-05T05:39:55.409Z,99615.50
2023-03-05T05:42:25.377Z,99624.00
2023-03-05T05:44:53.574Z,99613.78
2023-03-05T05:47:21.852Z,99632.47
2023-03-05T05:49:51.763Z,99639.63
2023-03-05T05:52:19.428Z,99636.50
2023-03-05T05:54:46.894Z,99631.03
2023-03-05T05:57:15.974Z,99649.44
2023-03-05T05:59:43.343Z,99639.19
2023-03-05T06:02:11.546Z,99640.94
2023-03-05T06:04:40.442Z,99660.31
2023-03-05T06:07:08.986Z,99658.44
2023-03-05T06:09:36.995Z,99646.31
2023-03-05T06:12:05.120Z,99659.22
2023-03-05T06:14:32.625Z,99669.00
2023-03-05T06:17:00.278Z,99671.53
2023-03-05T06:19:27.730Z,99666.00
2023-03-05T06:21:55.768Z,99677.16
2023-03-05T06:24:23.490Z,99682.06
2023-03-05T06:26:51.173Z,99666.69
2023-03-05T06:29:18.708Z,99684.53
2023-03-05T06:31:46.281Z,99659.31
2023-03-05T06:34:13.555Z,99668.81
2023-03-05T06:36:41.275Z,99670.88
2023-03-05T06:39:08.773Z,99675.41
2023-03-05T06:41:36.608Z,99684.78
2023-03-05T06:44:04.552Z,99678.81
2023-03-05T06:46:37.704Z,99687.47
2023-03-05T06:49:05.802Z,99678.13
2023-03-05T06:51:35.837Z,99679.69
2023-03-05T06:54:06.619Z,99681.16
2023-03-05T06:56:37.252Z,99676.72
2023-03-05T06:59:05.816Z,99675.34
2023-03-05T07:01:34.343Z,99681.56
2023-03-05T07:04:03.280Z,99670.88
2023-03-05T07:06:37.082Z,99672.34
2023-03-05T07:09:07.379Z,99672.63
2023-03-05T07:11:37.971Z,99679.16
2023-03-05T07:14:05.424Z,99671.41
2023-03-05T07:16:35.755Z,99669.16
2023-03-05T07:19:07.648Z,99676.00
2023-03-05T07:21:38.354Z,99672.47
2023-03-05T07:24:09.593Z,99679.53
2023-03-05T07:26:37.481Z,99672.00
2023-03-05T07:29:04.959Z,99674.75
2023-03-05T07:31:32.801Z,99653.50
2023-03-05T07:34:02.666Z,99660.31
2023-03-05T07:36:31.173Z,99659.03
2023-03-05T07:38:58.536Z,99680.38
2023-03-05T07:41:26.785Z,99671.53
2023-03-05T07:43:55.491Z,99668.69
2023-03-05T07:46:27.143Z,99658.56
2023-03-05T07:48:58.788Z,99654.63
2023-03-05T07:51:27.750Z,99651.78
2023-03-05T07:53:58.532Z,99649.13
2023-03-05T07:56:32.234Z,99655.19
2023-03-05T07:59:00.791Z,99665.63
2023-03-05T08:01:29.906Z,99658.41
2023-03-05T08:03:57.411Z,99668.41
2023-03-05T08:06:25.175Z,99652.56
2023-03-05T08:08:52.516Z,99657.94
2023-03-05T08:11:20.265Z,99669.34
2023-03-05T08:13:47.680Z,99665.94
2023-03-05T08:16:20.238Z,99679.69
2023-03-05T08:18:49.389Z,99664.94
2023-03-05T08:21:27.132Z,99671.78
2023-03-05T08:23:54.693Z,99653.69
2023-03-05T08:26:26.205Z,99669.28
2023-03-05T08:28:54.242Z,99681.78
2023-03-05T08:31:24.202Z,99664.28
2023-03-05T08:33:53.401Z,99663.88
2023-03-05T08:36:22.219Z,99638.09
2023-03-05T08:39:13.204Z,99622.66
2023-03-05T08:42:03.384Z,99664.25
2023-03-05T08:44:37.325Z,99659.88
2023-03-05T08:51:45.108Z,99633.09
2023-03-05T08:54:20.277Z,99642.88
2023-03-05T08:57:12.628Z,99660.09
2023-03-05T09:00:10.500Z,99635.53
2023-03-05T09:02:39.348Z,99657.84
2023-03-05T09:05:07.786Z,99656.00
2023-03-05T09:07:35.193Z,99653.28
2023-03-05T09:10:02.988Z,99651.75
2023-03-05T09:12:30.415Z,99666.69
2023-03-05T09:14:58.088Z,99648.72
2023-03-05T09:17:25.547Z,99631.38
2023-03-05T09:19:54.423Z,99645.25
2023-03-05T09:22:21.858Z,99648.91
2023-03-05T09:24:49.720Z,99635.50
2023-03-05T09:27:17.158Z,99659.72
2023-03-05T09:29:44.973Z,99650.91
2023-03-05T09:32:12.486Z,99658.47
2023-03-05T09:34:40.321Z,99635.78
2023-03-05T09:37:09.418Z,99660.97
2023-03-05T09:39:37.137Z,99641.84
2023-03-05T09:42:11.961Z,99628.38
2023-03-05T09:44:59.388Z,99643.38
2023-03-05T09:47:57.987Z,99642.72
2023-03-05T09:50:35.525Z,99646.81
2023-03-05T09:53:06.349Z,99642.31
2023-03-05T09:55:42.499Z,99643.06
2023-03-05T09:58:35.266Z,99637.44
2023-03-05T10:01:11.659Z,99635.00
2023-03-05T10:03:46.329Z,99618.00
2023-03-05T10:06:23.233Z,99631.84
2023-03-05T10:09:03.050Z,99611.00
2023-03-05T10:11:39.978Z,99625.19
2023-03-05T10:14:14.064Z,99619.75
2023-03-05T10:17:01.983Z,99617.50
2023-03-05T10:19:56.086Z,99618.84
2023-03-05T10:22:29.148Z,99610.34
2023-03-05T10:25:35.291Z,99617.50
2023-03-05T10:28:18.103Z,99582.56
2023-03-05T10:31:08.351Z,99608.53
2023-03-05T10:33:54.412Z,99608.72
2023-03-05T10:36:39.052Z,99600.25
2023-03-05T10:39:48.367Z,99596.91
2023-03-05T10:42:47.129Z,99594.22
2023-03-05T10:45:36.542Z,99591.47
2023-03-05T10:49:30.145Z,99579.88
2023-03-05T10:53:23.500Z,99578.75
2023-03-05T10:56:09.347Z,99576.13
2023-03-05T10:58:46.528Z,99555.13
2023-03-05T11:01:54.036Z,99575.50
2023-03-05T11:04:56.139Z,99544.94
2023-03-05T11:07:36.686Z,99564.63
2023-03-05T11:10:37.742Z,99556.28
2023-03-05T11:13:46.792Z,99550.56
2023-03-05T11:17:41.498Z,99554.19
2023-03-05T11:20:43.006Z,99542.16
2023-03-05T11:23:26.523Z,99515.16
2023-03-05T11:26:44.159Z,99537.34
2023-03-05T11:29:39.641Z,99512.31
2023-03-05T11:32:32.186Z,99495.53
2023-03-05T11:35:32.246Z,99524.66
2023-03-05T11:39:00.890Z,99512.84
2023-03-05T11:42:19.035Z,99509.53
2023-03-05T11:45:14.624Z,99499.97
2023-03-05T11:48:08.362Z,99498.81
2023-03-05T11:51:08.396Z,99508.66
2023-03-05T11:53:46.870Z,99510.81
2023-03-05T11:56:28.415Z,99501.53
2023-03-05T11:59:36.233Z,99486.31
2023-03-05T12:02:53.087Z,99500.72
2023-03-05T12:05:48.292Z,99490.75
2023-03-05T12:08:36.022Z,99465.56
2023-03-05T12:11:19.583Z,99483.94
2023-03-05T12:18:06.301Z,99479.28
2023-03-05T12:21:32.234Z,99471.44
2023-03-05T12:24:38.028Z,99478.59
2023-03-05T12:28:04.867Z,99458.84
2023-03-05T12:30:49.556Z,99467.50
2023-03-05T12:33:47.329Z,99452.81
2023-03-05T12:36:41.618Z,99469.66
2023-03-05T12:39:41.706Z,99467.28
2023-03-05T12:42:30.821Z,99466.28
2023-03-05T12:45:16.260Z,99470.69
2023-03-05T12:48:25.986Z,99467.66
2023-03-05T12:51:04.756Z,99462.56
2023-03-05T12:53:42.155Z,99469.28
2023-03-05T12:56:27.988Z,99462.81
2023-03-05T12:59:07.117Z,99465.47
2023-03-05T13:02:32.967Z,99469.50
2023-03-05T13:05:18.315Z,99452.28
2023-03-05T13:07:47.306Z,99458.38
2023-03-05T13:10:24.324Z,99449.06
2023-03-05T13:12:54.338Z,99438.31
2023-03-05T13:15:24.467Z,99427.84
2023-03-05T13:18:03.640Z,99445.88
2023-03-05T13:20:40.845Z,99437.13
2023-03-05T13:23:29.152Z,99446.66
2023-03-05T13:26:20.299Z,99425.66
2023-03-05T13:29:08.623Z,99436.84
2023-03-05T13:31:46.781Z,99428.53
2023-03-05T13:34:47.618Z,99423.78
2023-03-05T13:37:22.422Z,99424.63
2023-03-05T13:40:01.498Z,99424.81
2023-03-05T13:42:37.069Z,99431.19
2023-03-05T13:45:21.495Z,99428.31
2023-03-05T13:47:57.270Z,99426.22
2023-03-05T13:50:28.038Z,99425.47
2023-03-05T13:53:15.802Z,99400.53
2023-03-05T13:55:43.769Z,99414.47
2023-03-05T13:58:54.058Z,99421.91
2023-03-05T14:01:33.040Z,99426.06
2023-03-05T14:04:08.348Z,99405.72
2023-03-05T14:06:42.677Z,99403.81
2023-03-05T14:09:19.030Z,99404.88
2023-03-05T14:12:21.648Z,99399.47
2023-03-05T14:14:50.238Z,99393.19
2023-03-05T14:17:38.812Z,99389.66
2023-03-05T14:20:11.874Z,99393.50
2023-03-05T14:22:45.766Z,99395.09
2023-03-05T14:25:39.901Z,99404.88
2023-03-05T14:28:26.321Z,99393.66
2023-03-05T14:30:56.533Z,99389.94
2023-03-05T14:33:29.908Z,99403.53
2023-03-05T14:36:00.058Z,99393.56
2023-03-05T14:38:33.866Z,99375.31
2023-03-05T14:41:31.538Z,99389.22
2023-03-05T14:43:59.534Z,99371.13
2023-03-05T14:46:27.222Z,99376.47
2023-03-05T14:48:55.040Z,99367.13
2023-03-05T14:51:26.002Z,99370.72
2023-03-05T14:53:59.269Z,99364.78
2023-03-05T14:56:29.089Z,99368.47
2023-03-05T14:58:59.952Z,99357.91
2023-03-05T15:01:31.885Z,99366.56
2023-03-05T15:04:33.370Z,99367.16
2023-03-05T15:07:41.976Z,99322.72
2023-03-05T15:11:06.280Z,99361.41
2023-03-05T15:17:18.903Z,99354.22
2023-03-05T15:19:57.262Z,99355.66
2023-03-05T15:22:57.095Z,99378.34
2023-03-05T15:25:30.100Z,99359.03
2023-03-05T15:27:59.206Z,99370.16
2023-03-05T15:30:32.527Z,99363.91
2023-03-05T15:33:06.965Z,99371.38
2023-03-05T15:35:34.499Z,99364.44
2023-03-05T15:38:02.933Z,99358.84
2023-03-05T15:40:30.807Z,99344.06
2023-03-05T15:43:00.194Z,99345.25
2023-03-05T15:45:31.673Z,99363.03
2023-03-05T15:48:01.751Z,99343.75
2023-03-05T15:50:29.601Z,99354.28
2023-03-05T15:52:57.886Z,99339.50
2023-03-05T15:55:25.281Z,99346.22
2023-03-05T15:57:54.261Z,99345.50
2023-03-05T16:00:34.746Z,99350.59
2023-03-05T16:03:23.867Z,99315.44
2023-03-05T16:05:52.906Z,99331.28
2023-03-05T16:08:33.695Z,99360.19
2023-03-05T16:11:11.453Z,99356.16
2023-03-05T16:13:42.886Z,99348.91
2023-03-05T16:16:26.138Z,99353.78
2023-03-05T16:19:08.451Z,99367.59
2023-03-05T16:21:44.741Z,99355.47
2023-03-05T16:24:45.086Z,99360.72
2023-03-05T16:27:22.282Z,99363.59
2023-03-05T16:29:59.196Z,99358.34
2023-03-05T16:32:30.329Z,99358.22
2023-03-05T16:35:07.955Z,99361.63
2023-03-05T16:37:36.926Z,99363.50
2023-03-05T16:40:56.526Z,99362.72
2023-03-05T16:43:26.681Z,99361.56
2023-03-05T16:45:59.135Z,99352.28
2023-03-05T16:48:29.205Z,99365.06
2023-03-05T16:51:01.403Z,99372.97
2023-03-05T16:53:31.756Z,99375.75
2023-03-05T16:56:05.784Z,99379.84
2023-03-05T16:58:34.738Z,99375.84
2023-03-05T17:01:04.468Z,99373.75
2023-03-05T17:03:32.078Z,99383.53
2023-03-05T17:06:09.168Z,99377.03
2023-03-05T17:08:38.959Z,99359.38
2023-03-05T17:11:33.506Z,99389.00
2023-03-05T17:14:04.195Z,99379.78
2023-03-05T17:16:34.147Z,99384.16
2023-03-05T17:19:03.101Z,99381.94
2023-03-05T17:21:31.001Z,99382.56
2023-03-05T17:24:04.263Z,99383.50
2023-03-05T17:26:35.334Z,99385.31
2023-03-05T17:29:11.101Z,99382.19
2023-03-05T17:31:39.185Z,99379.22
2023-03-05T17:34:06.525Z,99377.06
2023-03-05T17:36:50.973Z,99384.19
2023-03-05T17:39:19.173Z,99379.94
2023-03-05T17:41:54.706Z,99380.88
2023-03-05T17:44:28.575Z,99382.66
2023-03-05T17:46:59.624Z,99382.66
2023-03-05T17:49:30.781Z,99386.00
2023-03-05T17:51:59.275Z,99375.66
2023-03-05T17:54:28.613Z,99380.06
2023-03-05T17:56:57.277Z,99377.16
2023-03-05T17:59:28.329Z,99378.91
2023-03-05T18:01:58.328Z,99377.44
2023-03-05T18:04:25.869Z,99376.81
2023-03-05T18:06:55.373Z,99380.13
2023-03-05T18:09:23.959Z,99377.00
2023-03-05T18:11:54.350Z,99376.94
2023-03-05T18:14:23.328Z,99389.84
2023-03-05T18:16:52.699Z,99386.25
2023-03-05T18:19:51.364Z,99390.38
2023-03-05T18:22:24.213Z,99387.28
2023-03-05T18:24:52.846Z,99381.53
2023-03-05T18:27:55.407Z,99389.69
2023-03-05T18:30:42.555Z,99363.59
2023-03-05T18:33:31.762Z,99380.44
2023-03-05T18:36:14.607Z,99382.03
2023-03-05T18:38:58.544Z,99316.34
2023-03-05T18:45:07.479Z,99385.84
2023-03-05T18:47:59.057Z,99385.75
2023-03-05T18:50:55.262Z,99379.47
2023-03-05T18:53:30.942Z,99386.88
2023-03-05T18:56:01.866Z,99390.69
2023-03-05T18:58:34.547Z,99396.22
2023-03-05T19:01:09.534Z,99388.75
2023-03-05T19:03:41.366Z,99387.56
2023-03-05T19:06:11.789Z,99386.69
2023-03-05T19:08:40.905Z,99384.00
2023-03-05T19:11:20.372Z,99392.81
2023-03-05T19:13:51.693Z,99398.38
2023-03-05T19:16:30.560Z,99392.25
2023-03-05T19:19:15.596Z,99388.09
2023-03-05T19:21:48.985Z,99393.75
2023-03-05T19:24:17.321Z,99384.38
2023-03-05T19:26:48.132Z,99399.28
2023-03-05T19:29:15.911Z,99388.56
2023-03-05T19:31:45.614Z,99395.75
2023-03-05T19:34:13.948Z,99389.47
2023-03-05T19:36:41.879Z,99386.41
2023-03-05T19:39:10.286Z,99391.41
2023-03-05T19:41:41.183Z,99393.94
2023-03-05T19:44:09.949Z,99394.13
2023-03-05T19:46:47.153Z,99389.66
2023-03-05T19:49:18.401Z,99394.38
2023-03-05T19:51:47.293Z,99390.69
2023-03-05T19:54:16.760Z,99391.44
2023-03-05T19:56:46.075Z,99388.91
2023-03-05T19:59:16.566Z,99379.66
2023-03-05T20:01:46.069Z,99383.19
2023-03-05T20:04:17.136Z,99396.81
2023-03-05T20:06:44.932Z,99384.19
2023-03-05T20:09:12.392Z,99390.78
2023-03-05T20:11:40.624Z,99388.66
2023-03-05T20:14:08.600Z,99389.94
2023-03-05T20:16:38.072Z,99388.38
2023-03-05T20:19:08.601Z,99384.59
2023-03-05T20:21:40.827Z,99377.16
2023-03-05T20:24:11.674Z,99367.41
2023-03-05T20:26:41.292Z,99373.16
2023-03-05T20:29:09.908Z,99391.75
2023-03-05T20:31:38.211Z,99377.44
2023-03-05T20:34:12.589Z,99390.66
2023-03-05T20:36:40.826Z,99396.13
2023-03-05T20:39:08.748Z,99384.91
2023-03-05T20:41:39.733Z,99385.28
2023-03-05T20:44:11.529Z,99385.88
2023-03-05T20:47:37.576Z,99383.28
2023-03-05T20:50:16.767Z,99381.63
2023-03-05T20:52:48.370Z,99379.22
2023-03-05T20:55:15.874Z,99377.06
2023-03-05T20:57:46.423Z,99376.34
2023-03-05T21:00:15.009Z,99352.63
2023-03-05T21:02:42.964Z,99371.59
2023-03-05T21:05:10.481Z,99365.59
2023-03-05T21:07:38.954Z,99363.00
2023-03-05T21:10:06.744Z,99361.91
2023-03-05T21:12:35.757Z,99360.22
2023-03-05T21:15:04.988Z,99348.38
2023-03-05T21:17:36.149Z,99360.50
2023-03-05T21:20:07.385Z,99359.72
2023-03-05T21:22:36.296Z,99357.81
2023-03-05T21:25:25.046Z,99368.16
2023-03-05T21:28:07.031Z,99365.03
2023-03-05T21:30:49.253Z,99367.31
2023-03-05T21:33:24.233Z,99352.81
2023-03-05T21:35:54.683Z,99364.41
2023-03-05T21:38:31.047Z,99359.94
2023-03-05T21:40:59.313Z,99357.56
2023-03-05T21:43:32.564Z,99354.09
2023-03-05T21:46:08.838Z,99348.75
2023-03-05T21:48:43.546Z,99347.00
2023-03-05T21:51:49.042Z,99358.09
2023-03-05T21:54:20.205Z,99347.34
2023-03-05T21:56:47.602Z,99346.25
2023-03-05T21:59:16.845Z,99354.69
2023-03-05T22:01:50.354Z,99349.03
2023-03-05T22:04:23.901Z,99353.28
2023-03-05T22:07:06.585Z,99349.19
2023-03-05T22:09:37.136Z,99341.84
2023-03-05T22:12:32.877Z,99349.63
2023-03-05T22:15:22.948Z,99340.44
2023-03-05T22:17:51.999Z,99352.00
2023-03-05T22:20:20.102Z,99330.97
2023-03-05T22:22:47.762Z,99340.91
2023-03-05T22:25:16.170Z,99343.28
2023-03-05T22:27:44.990Z,99349.16
2023-03-05T22:30:13.812Z,99354.19
2023-03-05T22:32:42.412Z,99351.31
2023-03-05T22:35:15.067Z,99343.75
2023-03-05T22:37:44.068Z,99354.50
2023-03-05T22:40:18.469Z,99348.19
2023-03-05T22:42:46.335Z,99335.88
2023-03-05T22:45:15.910Z,99338.38
2023-03-05T22:47:43.639Z,99325.84
2023-03-05T22:50:12.811Z,99326.50
2023-03-05T22:52:46.836Z,99328.88
2023-03-05T22:55:18.474Z,99314.25
2023-03-05T22:57:46.477Z,99321.78
2023-03-05T23:00:18.759Z,99324.34
2023-03-05T23:02:46.456Z,99318.03
2023-03-05T23:05:14.642Z,99324.88
2023-03-05T23:07:43.054Z,99312.00
2023-03-05T23:10:20.846Z,99301.50
2023-03-05T23:12:52.226Z,99317.22
2023-03-05T23:15:24.735Z,99289.94
2023-03-05T23:17:52.557Z,99304.28
2023-03-05T23:20:23.453Z,99305.66
2023-03-05T23:22:56.402Z,99323.22
2023-03-05T23:25:30.326Z,99323.16
2023-03-05T23:27:59.093Z,99323.75
2023-03-05T23:30:33.276Z,99318.03
2023-03-05T23:33:13.758Z,99313.41
2023-03-05T23:35:43.880Z,99317.28
2023-03-05T23:38:14.682Z,99291.44
2023-03-05T23:40:49.465Z,99321.03
2023-03-05T23:43:25.779Z,99319.97
2023-03-05T23:45:55.363Z,99321.69
2023-03-05T23:48:26.536Z,99305.41
2023-03-05T23:50:56.305Z,99320.06
2023-03-05T23:53:33.756Z,99302.09
2023-03-05T23:56:08.201Z,99284.94
2023-03-05T23:58:36.371Z,99310.22
